Akwesasne, New York
Current Conditions -  °F | °C
As of 5:53 AM on Sunday 28 Dec 2014 (Local Time) from KMSS Reporting Station
Overcast Overcast  
Wind Chill: 38°   Ceiling: 6000
Heat Index: 44°   Visibility: 10mi
Dew Point: 39°   Wind: 13mph
Humidity: 82%   Direction: 230°SW
Pressure: 29.74"   Gusts: NA
Location:  44.9835°N, 74.6107°W
Report Text: KMSS 281053Z AUTO 23011KT 10SM OVC060 07/04 A2974 RMK AO2 RAE05B14E21 SLP073 P0000 T00670039
Loading
Personal Weather Stations






























Interactive Weather Map New forecast layout! Learn more

10-Day Weather Forecast

Advertisements
Track Severe Weather on mobile